createdAt,value
2023-05-05T00:00:42.665Z,55.58
2023-05-05T00:03:27.138Z,55.73
2023-05-05T00:06:10.806Z,55.75
2023-05-05T00:08:55.272Z,57.46
2023-05-05T00:11:38.732Z,55.94
2023-05-05T00:14:22.203Z,55.52
2023-05-05T00:17:05.812Z,55.20
2023-05-05T00:19:49.649Z,55.41
2023-05-05T00:22:33.173Z,55.93
2023-05-05T00:25:16.671Z,55.36
2023-05-05T00:28:00.475Z,57.03
2023-05-05T00:30:44.108Z,56.12
2023-05-05T00:33:27.901Z,56.02
2023-05-05T00:36:11.554Z,55.44
2023-05-05T00:38:55.059Z,56.19
2023-05-05T00:41:38.660Z,56.03
2023-05-05T00:44:41.834Z,57.46
2023-05-05T00:47:25.715Z,57.91
2023-05-05T00:50:10.985Z,56.64
2023-05-05T00:53:00.468Z,59.08
2023-05-05T00:55:44.026Z,57.86
2023-05-05T00:58:30.528Z,58.61
2023-05-05T01:01:15.653Z,59.21
2023-05-05T01:03:59.370Z,58.61
2023-05-05T01:06:59.678Z,58.77
2023-05-05T01:10:24.948Z,58.41
2023-05-05T01:13:40.876Z,57.79
2023-05-05T01:16:29.878Z,59.90
2023-05-05T01:20:04.598Z,60.12
2023-05-05T01:22:57.763Z,60.48
2023-05-05T01:26:22.197Z,59.77
2023-05-05T01:29:38.575Z,58.84
2023-05-05T01:32:34.064Z,58.39
2023-05-05T01:35:28.738Z,58.08
2023-05-05T01:38:40.698Z,58.38
2023-05-05T01:41:50.436Z,58.37
2023-05-05T01:44:38.276Z,58.22
2023-05-05T01:47:23.270Z,58.70
2023-05-05T01:50:09.335Z,57.30
2023-05-05T01:52:56.662Z,58.46
2023-05-05T01:55:42.070Z,57.43
2023-05-05T01:58:30.096Z,58.43
2023-05-05T02:01:15.589Z,57.97
2023-05-05T02:04:02.147Z,58.00
2023-05-05T02:06:51.705Z,58.60
2023-05-05T02:09:37.186Z,58.26
2023-05-05T02:12:22.853Z,61.89
2023-05-05T02:15:08.272Z,60.12
2023-05-05T02:17:53.163Z,59.68
2023-05-05T02:20:39.899Z,63.04
2023-05-05T02:23:23.679Z,60.76
2023-05-05T02:26:11.632Z,60.11
2023-05-05T02:29:07.586Z,60.09
2023-05-05T02:31:58.587Z,59.69
2023-05-05T02:34:48.276Z,60.49
2023-05-05T02:37:36.137Z,58.41
2023-05-05T02:40:26.415Z,60.32
2023-05-05T02:43:18.206Z,59.08
2023-05-05T02:46:02.486Z,59.13
2023-05-05T02:48:47.551Z,58.77
2023-05-05T02:51:32.746Z,59.45
2023-05-05T02:54:21.400Z,57.79
2023-05-05T02:57:05.010Z,58.47
2023-05-05T03:00:16.472Z,58.75
2023-05-05T03:03:18.577Z,59.65
2023-05-05T03:06:27.435Z,59.92
2023-05-05T03:09:32.543Z,61.75
2023-05-05T03:12:22.560Z,61.04
2023-05-05T03:15:22.881Z,62.24
2023-05-05T03:18:10.993Z,61.56
2023-05-05T03:20:57.368Z,61.89
2023-05-05T03:23:41.073Z,62.32
2023-05-05T03:26:32.249Z,63.00
2023-05-05T03:29:16.864Z,63.61
2023-05-05T03:32:01.767Z,63.09
2023-05-05T03:34:46.532Z,63.66
2023-05-05T03:37:30.193Z,63.94
2023-05-05T03:40:14.541Z,62.66
2023-05-05T03:42:58.412Z,61.84
2023-05-05T03:45:42.645Z,63.46
2023-05-05T03:48:26.487Z,64.07
2023-05-05T03:51:10.228Z,64.24
2023-05-05T03:53:53.935Z,63.16
2023-05-05T03:56:37.662Z,62.87
2023-05-05T03:59:21.259Z,64.76
2023-05-05T04:02:04.872Z,65.70
2023-05-05T04:04:48.406Z,65.36
2023-05-05T04:07:31.927Z,65.45
2023-05-05T04:10:15.540Z,64.94
2023-05-05T04:12:59.338Z,65.11
2023-05-05T04:15:46.235Z,65.33
2023-05-05T04:18:31.415Z,66.56
2023-05-05T04:21:17.820Z,66.89
2023-05-05T04:24:01.638Z,66.35
2023-05-05T04:26:45.748Z,65.42
2023-05-05T04:29:29.403Z,64.66
2023-05-05T04:32:13.418Z,64.99
2023-05-05T04:34:56.959Z,65.34
2023-05-05T04:37:41.251Z,67.46
2023-05-05T04:40:26.404Z,65.76
2023-05-05T04:43:10.934Z,65.84
2023-05-05T04:45:55.875Z,67.00
2023-05-05T04:48:43.327Z,66.58
2023-05-05T04:51:27.820Z,66.34
2023-05-05T04:54:11.557Z,67.21
2023-05-05T04:56:55.824Z,66.94
2023-05-05T04:59:39.346Z,66.74
2023-05-05T05:02:22.943Z,67.03
2023-05-05T05:05:07.479Z,65.79
2023-05-05T05:07:51.189Z,65.45
2023-05-05T05:10:36.514Z,65.53
2023-05-05T05:13:20.354Z,65.47
2023-05-05T05:16:04.331Z,65.37
2023-05-05T05:18:47.964Z,65.34
2023-05-05T05:21:31.880Z,65.39
2023-05-05T05:24:16.452Z,65.32
2023-05-05T05:27:00.453Z,65.04
2023-05-05T05:29:44.335Z,64.73
2023-05-05T05:32:28.142Z,64.81
2023-05-05T05:35:12.246Z,64.25
2023-05-05T05:37:56.407Z,64.72
2023-05-05T05:40:40.980Z,63.59
2023-05-05T05:43:24.717Z,63.98
2023-05-05T05:46:09.456Z,64.12
2023-05-05T05:48:55.113Z,63.92
2023-05-05T05:51:38.802Z,63.76
2023-05-05T05:54:22.399Z,63.29
2023-05-05T05:57:07.037Z,63.02
2023-05-05T05:59:50.992Z,62.62
2023-05-05T06:02:34.801Z,62.09
2023-05-05T06:05:18.583Z,62.06
2023-05-05T06:08:03.407Z,61.62
2023-05-05T06:10:48.970Z,61.59
2023-05-05T06:13:35.602Z,61.17
2023-05-05T06:16:21.718Z,60.46
2023-05-05T06:19:09.633Z,59.48
2023-05-05T06:21:53.716Z,59.53
2023-05-05T06:24:37.248Z,58.29
2023-05-05T06:27:20.861Z,58.88
2023-05-05T06:30:04.906Z,58.36
2023-05-05T06:32:48.487Z,58.09
2023-05-05T06:35:32.211Z,57.53
2023-05-05T06:38:16.055Z,57.19
2023-05-05T06:40:59.694Z,56.72
2023-05-05T06:43:44.420Z,55.76
2023-05-05T06:46:30.488Z,55.57
2023-05-05T06:49:14.145Z,54.79
2023-05-05T06:51:57.648Z,54.59
2023-05-05T06:54:41.434Z,54.88
2023-05-05T06:57:25.780Z,53.84
2023-05-05T07:00:11.545Z,54.33
2023-05-05T07:02:55.303Z,52.93
2023-05-05T07:05:38.862Z,52.59
2023-05-05T07:08:22.402Z,52.54
2023-05-05T07:11:06.121Z,51.95
2023-05-05T07:13:49.645Z,52.00
2023-05-05T07:16:34.882Z,52.75
2023-05-05T07:19:18.517Z,52.89
2023-05-05T07:22:02.085Z,53.03
2023-05-05T07:24:45.630Z,52.51
2023-05-05T07:27:29.373Z,51.97
2023-05-05T07:30:17.340Z,52.60
2023-05-05T07:33:01.972Z,51.71
2023-05-05T07:35:45.837Z,51.59
2023-05-05T07:38:29.435Z,51.91
2023-05-05T07:41:13.320Z,51.74
2023-05-05T07:43:56.813Z,51.98
2023-05-05T07:46:40.490Z,51.70
2023-05-05T07:49:24.092Z,51.10
2023-05-05T07:52:07.662Z,50.79
2023-05-05T07:54:51.182Z,49.82
2023-05-05T07:57:34.780Z,48.59
2023-05-05T08:00:19.663Z,49.63
2023-05-05T08:03:07.045Z,49.35
2023-05-05T08:05:55.669Z,48.33
2023-05-05T08:08:39.224Z,49.33
2023-05-05T08:11:22.834Z,48.71
2023-05-05T08:14:07.975Z,47.85
2023-05-05T08:16:51.547Z,48.16
2023-05-05T08:19:35.132Z,46.65
2023-05-05T08:22:18.862Z,47.17
2023-05-05T08:25:02.405Z,46.71
2023-05-05T08:27:46.757Z,47.22
2023-05-05T08:30:31.171Z,45.46
2023-05-05T08:33:14.736Z,44.40
2023-05-05T08:35:58.452Z,43.34
2023-05-05T08:38:42.305Z,44.16
2023-05-05T08:41:26.379Z,43.68
2023-05-05T08:44:11.742Z,42.83
2023-05-05T08:46:55.784Z,42.25
2023-05-05T08:49:46.696Z,42.94
2023-05-05T08:52:41.988Z,42.86
2023-05-05T08:55:29.466Z,42.20
2023-05-05T08:58:15.566Z,42.00
2023-05-05T09:01:01.634Z,40.53
2023-05-05T09:03:46.242Z,41.96
2023-05-05T09:06:32.433Z,41.77
2023-05-05T09:09:15.937Z,41.51
2023-05-05T09:11:59.853Z,40.72
2023-05-05T09:14:43.357Z,40.33
2023-05-05T09:17:27.455Z,40.43
2023-05-05T09:20:14.750Z,39.82
2023-05-05T09:22:58.437Z,39.30
2023-05-05T09:25:46.195Z,39.46
2023-05-05T09:28:29.774Z,37.93
2023-05-05T09:31:16.366Z,39.17
2023-05-05T09:34:01.286Z,37.57
2023-05-05T09:36:49.491Z,38.60
2023-05-05T09:39:33.064Z,38.87
2023-05-05T09:42:19.900Z,37.32
2023-05-05T09:45:05.373Z,37.72
2023-05-05T09:47:49.469Z,37.41
2023-05-05T09:50:45.842Z,37.14
2023-05-05T09:53:41.658Z,37.79
2023-05-05T09:56:42.928Z,36.26
2023-05-05T09:59:26.455Z,36.22
2023-05-05T10:02:12.966Z,36.26
2023-05-05T10:05:09.542Z,35.55
2023-05-05T10:07:53.224Z,35.25
2023-05-05T10:10:48.335Z,35.14
2023-05-05T10:13:41.113Z,34.91
2023-05-05T10:16:27.454Z,33.54
2023-05-05T10:19:15.225Z,33.86
2023-05-05T10:22:08.386Z,33.48
2023-05-05T10:25:03.570Z,35.17
2023-05-05T10:27:53.082Z,33.45
2023-05-05T10:30:44.306Z,34.23
2023-05-05T10:34:00.413Z,33.18
2023-05-05T10:36:45.235Z,33.63
2023-05-05T10:39:29.409Z,34.84
2023-05-05T10:42:15.913Z,33.63
2023-05-05T10:44:59.509Z,33.70
2023-05-05T10:47:44.668Z,33.31
2023-05-05T10:50:44.437Z,33.04
2023-05-05T10:53:55.864Z,32.53
2023-05-05T10:56:49.804Z,33.39
2023-05-05T10:59:46.754Z,32.82
2023-05-05T11:06:09.226Z,32.19
2023-05-05T11:08:55.992Z,32.94
2023-05-05T11:12:03.100Z,32.38
2023-05-05T11:14:46.616Z,32.76
2023-05-05T11:17:47.229Z,32.89
2023-05-05T11:20:43.730Z,32.71
2023-05-05T11:23:29.293Z,32.16
2023-05-05T11:26:14.850Z,32.30
2023-05-05T11:29:05.367Z,33.27
2023-05-05T11:32:13.109Z,32.87
2023-05-05T11:34:56.977Z,32.93
2023-05-05T11:40:46.640Z,33.19
2023-05-05T11:43:30.291Z,33.33
2023-05-05T11:46:17.649Z,33.91
2023-05-05T11:49:01.807Z,32.95
2023-05-05T11:52:16.264Z,32.31
2023-05-05T11:55:01.740Z,33.78
2023-05-05T11:57:45.333Z,32.76
2023-05-05T12:00:34.005Z,33.03
2023-05-05T12:03:17.731Z,33.16
2023-05-05T12:06:01.534Z,32.10
2023-05-05T12:08:45.119Z,33.10
2023-05-05T12:11:28.677Z,32.54
2023-05-05T12:14:12.303Z,32.87
2023-05-05T12:17:08.124Z,32.44
2023-05-05T12:19:54.516Z,32.98
2023-05-05T12:22:50.170Z,32.82
2023-05-05T12:25:44.087Z,32.69
2023-05-05T12:28:49.499Z,32.88
2023-05-05T12:31:39.876Z,32.25
2023-05-05T12:34:24.370Z,32.61
2023-05-05T12:37:08.021Z,32.72
2023-05-05T12:39:52.449Z,32.40
2023-05-05T12:42:40.145Z,33.18
2023-05-05T12:45:23.777Z,33.21
2023-05-05T12:48:22.976Z,32.56
2023-05-05T12:51:23.701Z,31.78
2023-05-05T12:54:10.182Z,33.41
2023-05-05T12:56:53.725Z,31.98
2023-05-05T12:59:37.249Z,31.16
2023-05-05T13:02:21.277Z,32.35
2023-05-05T13:05:05.631Z,32.38
2023-05-05T13:07:52.347Z,32.77
2023-05-05T13:10:36.361Z,32.44
2023-05-05T13:13:19.900Z,32.13
2023-05-05T13:16:03.639Z,32.18
2023-05-05T13:18:49.760Z,31.38
2023-05-05T13:21:33.505Z,31.99
2023-05-05T13:27:04.583Z,31.59
2023-05-05T13:29:48.213Z,30.99
2023-05-05T13:32:31.822Z,30.92
2023-05-05T13:35:16.601Z,30.66
2023-05-05T13:38:00.291Z,31.60
2023-05-05T13:40:43.808Z,31.66
2023-05-05T13:43:27.374Z,31.38
2023-05-05T13:49:00.467Z,31.21
2023-05-05T13:51:45.301Z,31.91
2023-05-05T13:54:28.828Z,32.67
2023-05-05T13:57:12.514Z,33.57
2023-05-05T13:59:56.086Z,32.21
2023-05-05T14:02:39.624Z,33.25
2023-05-05T14:05:25.839Z,32.17
2023-05-05T14:08:10.291Z,32.59
2023-05-05T14:10:53.791Z,32.07
2023-05-05T14:13:37.337Z,32.60
2023-05-05T14:16:20.985Z,33.22
2023-05-05T14:19:04.626Z,33.40
2023-05-05T14:21:48.182Z,34.83
2023-05-05T14:24:31.731Z,34.93
2023-05-05T14:27:15.498Z,33.93
2023-05-05T14:29:59.023Z,32.52
2023-05-05T14:32:43.145Z,32.77
2023-05-05T14:35:26.729Z,33.59
2023-05-05T14:38:10.388Z,32.99
2023-05-05T14:40:54.096Z,34.62
2023-05-05T14:43:37.601Z,33.49
2023-05-05T14:46:21.422Z,33.66
2023-05-05T14:49:04.944Z,35.39
2023-05-05T14:51:49.056Z,32.28
2023-05-05T14:54:38.719Z,33.03
2023-05-05T14:57:24.550Z,33.32
2023-05-05T15:00:09.534Z,32.68
2023-05-05T15:02:53.114Z,33.30
2023-05-05T15:05:37.364Z,33.33
2023-05-05T15:08:21.215Z,32.90
2023-05-05T15:11:06.229Z,32.81
2023-05-05T15:13:49.793Z,33.50
2023-05-05T15:16:35.226Z,32.82
2023-05-05T15:19:19.089Z,33.35
2023-05-05T15:22:02.660Z,33.07
2023-05-05T15:24:46.465Z,33.85
2023-05-05T15:27:31.754Z,34.23
2023-05-05T15:30:15.968Z,33.41
2023-05-05T15:32:59.643Z,33.47
2023-05-05T15:35:43.302Z,33.68
2023-05-05T15:38:29.211Z,34.08
2023-05-05T15:41:12.771Z,33.73
2023-05-05T15:43:56.354Z,34.53
2023-05-05T15:46:41.092Z,33.56
2023-05-05T15:49:27.079Z,33.76
2023-05-05T15:52:10.721Z,33.98
2023-05-05T15:54:54.315Z,34.46
2023-05-05T15:57:39.930Z,34.83
2023-05-05T16:00:23.748Z,35.19
2023-05-05T16:03:08.949Z,34.83
2023-05-05T16:05:52.817Z,35.40
2023-05-05T16:08:36.453Z,35.01
2023-05-05T16:11:23.652Z,35.36
2023-05-05T16:14:07.368Z,35.26
2023-05-05T16:16:50.964Z,35.71
2023-05-05T16:19:34.993Z,35.73
2023-05-05T16:22:18.743Z,36.13
2023-05-05T16:25:06.645Z,36.92
2023-05-05T16:27:50.672Z,36.43
2023-05-05T16:30:34.532Z,37.44
2023-05-05T16:33:18.180Z,37.21
2023-05-05T16:36:01.658Z,37.39
2023-05-05T16:38:45.367Z,37.79
2023-05-05T16:41:29.162Z,37.85
2023-05-05T16:44:12.969Z,37.13
2023-05-05T16:46:56.553Z,36.96
2023-05-05T16:49:40.075Z,38.07
2023-05-05T16:52:23.633Z,38.89
2023-05-05T16:55:07.843Z,38.48
2023-05-05T16:57:51.728Z,38.79
2023-05-05T17:00:35.557Z,38.71
2023-05-05T17:03:20.548Z,39.85
2023-05-05T17:06:04.316Z,39.43
2023-05-05T17:08:47.845Z,39.89
2023-05-05T17:11:31.860Z,39.66
2023-05-05T17:14:15.448Z,39.72
2023-05-05T17:16:59.056Z,40.37
2023-05-05T17:19:42.871Z,40.08
2023-05-05T17:22:26.466Z,39.94
2023-05-05T17:25:10.880Z,40.81
2023-05-05T17:27:55.720Z,40.81
2023-05-05T17:30:39.315Z,40.83
2023-05-05T17:33:22.902Z,41.59
2023-05-05T17:36:07.053Z,41.08
2023-05-05T17:38:50.577Z,41.69
2023-05-05T17:41:34.162Z,41.49
2023-05-05T17:44:17.733Z,41.78
2023-05-05T17:47:02.966Z,41.47
2023-05-05T17:49:46.527Z,41.95
2023-05-05T17:52:30.124Z,43.25
2023-05-05T17:55:13.862Z,43.79
2023-05-05T17:57:59.119Z,43.39
2023-05-05T18:00:42.660Z,44.38
2023-05-05T18:03:26.458Z,44.44
2023-05-05T18:06:10.087Z,45.15
2023-05-05T18:08:53.643Z,45.33
2023-05-05T18:11:37.622Z,46.35
2023-05-05T18:14:22.563Z,46.19
2023-05-05T18:17:06.258Z,46.45
2023-05-05T18:19:49.772Z,46.66
2023-05-05T18:22:34.296Z,46.75
2023-05-05T18:25:19.123Z,46.09
2023-05-05T18:28:02.972Z,46.72
2023-05-05T18:30:46.591Z,46.94
2023-05-05T18:33:30.126Z,47.79
2023-05-05T18:36:13.668Z,48.17
2023-05-05T18:38:57.331Z,48.30
2023-05-05T18:41:41.184Z,48.64
2023-05-05T18:44:26.676Z,48.95
2023-05-05T18:47:11.263Z,49.38
2023-05-05T18:49:54.947Z,48.84
2023-05-05T18:52:38.520Z,49.16
2023-05-05T18:55:22.175Z,48.84
2023-05-05T18:58:05.821Z,48.16
2023-05-05T19:00:49.446Z,48.41
2023-05-05T19:03:34.818Z,49.41
2023-05-05T19:06:18.831Z,49.33
2023-05-05T19:09:02.634Z,49.14
2023-05-05T19:11:46.225Z,50.17
2023-05-05T19:14:29.939Z,49.58
2023-05-05T19:17:13.553Z,49.73
2023-05-05T19:19:57.222Z,49.76
2023-05-05T19:22:40.986Z,49.39
2023-05-05T19:25:24.549Z,49.46
2023-05-05T19:28:08.321Z,49.97
2023-05-05T19:30:52.433Z,50.07
2023-05-05T19:33:36.652Z,49.92
2023-05-05T19:36:20.202Z,50.69
2023-05-05T19:39:05.027Z,49.81
2023-05-05T19:41:48.619Z,49.87
2023-05-05T19:44:32.224Z,49.74
2023-05-05T19:47:15.896Z,50.53
2023-05-05T19:49:59.398Z,51.28
2023-05-05T19:52:42.988Z,51.25
2023-05-05T19:55:26.973Z,50.32
2023-05-05T19:58:10.551Z,50.83
2023-05-05T20:00:54.104Z,50.74
2023-05-05T20:03:37.805Z,50.32
2023-05-05T20:06:22.894Z,51.27
2023-05-05T20:09:06.597Z,51.70
2023-05-05T20:11:50.176Z,52.07
2023-05-05T20:14:33.719Z,51.69
2023-05-05T20:17:20.292Z,51.34
2023-05-05T20:20:04.173Z,51.61
2023-05-05T20:22:49.768Z,51.79
2023-05-05T20:25:33.371Z,52.23
2023-05-05T20:28:16.933Z,51.73
2023-05-05T20:31:03.724Z,52.02
2023-05-05T20:33:47.504Z,52.21
2023-05-05T20:36:31.459Z,51.89
2023-05-05T20:39:16.089Z,51.94
2023-05-05T20:41:59.618Z,52.19
2023-05-05T20:44:43.237Z,52.48
2023-05-05T20:47:27.096Z,52.55
2023-05-05T20:50:11.735Z,51.86
2023-05-05T20:52:55.707Z,52.26
2023-05-05T20:55:39.707Z,52.50
2023-05-05T20:58:23.260Z,52.01
2023-05-05T21:01:06.866Z,52.40
2023-05-05T21:03:50.610Z,52.62
2023-05-05T21:06:34.138Z,53.21
2023-05-05T21:09:17.697Z,52.70
2023-05-05T21:12:02.497Z,52.19
2023-05-05T21:14:46.140Z,52.83
2023-05-05T21:17:30.225Z,53.41
2023-05-05T21:20:14.148Z,52.83
2023-05-05T21:22:57.676Z,53.04
2023-05-05T21:25:41.361Z,52.60
2023-05-05T21:28:24.886Z,53.03
2023-05-05T21:33:54.903Z,52.15
2023-05-05T21:36:38.796Z,52.84
2023-05-05T21:39:22.439Z,53.87
2023-05-05T21:42:08.402Z,54.00
2023-05-05T21:44:51.976Z,53.57
2023-05-05T21:47:35.635Z,54.18
2023-05-05T21:50:20.017Z,54.07
2023-05-05T21:53:03.613Z,53.53
2023-05-05T21:55:48.073Z,53.92
2023-05-05T21:58:31.576Z,54.08
2023-05-05T22:01:15.125Z,54.85
2023-05-05T22:03:59.014Z,55.30
2023-05-05T22:06:42.761Z,54.52
2023-05-05T22:09:26.342Z,55.52
2023-05-05T22:12:09.958Z,56.11
2023-05-05T22:14:53.493Z,56.77
2023-05-05T22:17:37.073Z,56.66
2023-05-05T22:20:20.637Z,58.10
2023-05-05T22:23:04.336Z,58.37
2023-05-05T22:25:47.862Z,57.58
2023-05-05T22:28:31.430Z,58.28
2023-05-05T22:31:15.065Z,59.69
2023-05-05T22:33:58.663Z,58.43
2023-05-05T22:36:42.363Z,59.76
2023-05-05T22:39:25.879Z,59.29
2023-05-05T22:42:09.699Z,59.69
2023-05-05T22:44:53.497Z,59.93
2023-05-05T22:47:37.323Z,59.79
2023-05-05T22:50:20.952Z,60.27
2023-05-05T22:53:04.623Z,58.69
2023-05-05T22:55:48.256Z,59.09
2023-05-05T22:58:31.835Z,60.31
2023-05-05T23:01:15.418Z,59.88
2023-05-05T23:03:59.101Z,60.54
2023-05-05T23:06:42.692Z,62.07
2023-05-05T23:09:26.355Z,62.31
2023-05-05T23:12:09.919Z,64.48
2023-05-05T23:14:53.462Z,64.50
2023-05-05T23:17:37.041Z,64.95
2023-05-05T23:20:20.836Z,67.65
2023-05-05T23:23:04.850Z,67.83
2023-05-05T23:25:48.467Z,69.34
2023-05-05T23:28:31.953Z,68.01
2023-05-05T23:31:15.589Z,69.67
2023-05-05T23:33:59.225Z,70.41
2023-05-05T23:36:43.795Z,70.54
2023-05-05T23:39:27.448Z,70.95
2023-05-05T23:42:11.026Z,72.41
2023-05-05T23:44:54.581Z,74.24
2023-05-05T23:47:38.136Z,74.23
2023-05-05T23:50:22.274Z,74.00
2023-05-05T23:53:05.875Z,73.95
2023-05-05T23:55:49.402Z,74.58
2023-05-05T23:58:32.925Z,73.68
